Pawnee, Oklahoma
Current Conditions -  °F | °C
As of 6:53 PM on Wednesday 17 Dec 2014 (Local Time) from KSWO Reporting Station
Haze Haze  
Wind Chill: 30°   Ceiling: 500
Heat Index: 36°   Visibility: 5mi
Dew Point: 33°   Wind: 7mph
Humidity: 89%   Direction: 100°E
Pressure: 30.17"   Gusts: NA
Location:  36.34°N, 96.8°W
Report Text: KSWO 180053Z 10006KT 5SM BR OVC005 02/01 A3017 RMK AO2 SLP221 P0002 T00220006
Loading
Personal Weather Stations






























Interactive Weather Map New forecast layout! Learn more

10-Day Weather Forecast

Advertisements
Track Severe Weather on mobile